| time (UTC) | temp C | wind direction | speed KPH | gust KPH | rain 1hr cm | rain 24hr cm | rain mn cm | humidity % | barometer mb |
| 20260503231549 | 18 | 0 | 0.0 | 4.8 | 0.00 | 0.00 | 0.00 | 47 | 1015.7 |
| 20260503231032 | 18 | 0 | 0.0 | 1.6 | 0.00 | 0.00 | 0.00 | 48 | 1015.8 |
| 20260503230535 | 18 | 0 | 0.0 | 0.0 | 0.00 | 0.00 | 0.00 | 46 | 1015.7 |
| 20260503230053 | 18 | 0 | 0.0 | 0.0 | 0.00 | 0.00 | 0.00 | 47 | 1015.8 |
| 20260503225532 | 19 | 0 | 0.0 | 0.0 | 0.00 | 0.00 | 0.00 | 48 | 1015.8 |
| 20260503225032 | 19 | 0 | 0.0 | 1.6 | 0.00 | 0.00 | 0.00 | 46 | 1015.8 |
| 20260503224545 | 19 | 0 | 0.0 | 1.6 | 0.00 | 0.00 | 0.00 | 44 | 1015.8 |
| 20260503224032 | 19 | 0 | 0.0 | 4.8 | 0.00 | 0.00 | 0.00 | 44 | 1015.8 |
| 20260503223532 | 20 | 0 | 0.0 | 4.8 | 0.00 | 0.00 | 0.00 | 45 | 1015.9 |
| 20260503223045 | 20 | 0 | 0.0 | 4.8 | 0.00 | 0.00 | 0.00 | 44 | 1015.8 |
| 20260503222529 | 20 | 0 | 0.0 | 3.2 | 0.00 | 0.00 | 0.00 | 44 | 1015.8 |
| 20260503222031 | 20 | 0 | 0.0 | 8.0 | 0.00 | 0.00 | 0.00 | 43 | 1015.8 |
| 20260503221550 | 20 | 0 | 0.0 | 8.0 | 0.00 | 0.00 | 0.00 | 44 | 1015.8 |
| 20260503221030 | 20 | 0 | 0.0 | 1.6 | 0.00 | 0.00 | 0.00 | 44 | 1015.8 |
| 20260503220530 | 20 | 0 | 0.0 | 3.2 | 0.00 | 0.00 | 0.00 | 45 | 1015.7 |
| 20260503220052 | 20 | 0 | 0.0 | 3.2 | 0.00 | 0.00 | 0.00 | 45 | 1015.7 |
| 20260503215531 | 20 | 0 | 0.0 | 1.6 | 0.00 | 0.00 | 0.00 | 43 | 1015.9 |
| 20260503215031 | 20 | 0 | 0.0 | 1.6 | 0.00 | 0.00 | 0.00 | 46 | 1015.9 |
| 20260503214545 | 20 | 0 | 0.0 | 8.0 | 0.00 | 0.00 | 0.00 | 43 | 1016.0 |
| 20260503214034 | 20 | 0 | 0.0 | 8.0 | 0.00 | 0.00 | 0.00 | 41 | 1016.0 |
| 20260503213530 | 20 | 240 | 0.0 | 3.2 | 0.00 | 0.00 | 0.00 | 42 | 1016.1 |
| 20260503213048 | 21 | 0 | 0.0 | 1.6 | 0.00 | 0.00 | 0.00 | 41 | 1016.0 |
| 20260503212531 | 21 | 0 | 0.0 | 8.0 | 0.00 | 0.00 | 0.00 | 40 | 1016.0 |
| 20260503212031 | 21 | 0 | 0.0 | 8.0 | 0.00 | 0.00 | 0.00 | 40 | 1016.1 |
| 20260503211548 | 21 | 0 | 0.0 | 1.6 | 0.00 | 0.00 | 0.00 | 41 | 1016.2 |
| 20260503211031 | 21 | 0 | 0.0 | 1.6 | 0.00 | 0.00 | 0.00 | 41 | 1016.2 |
| 20260503210531 | 21 | 0 | 0.0 | 1.6 | 0.00 | 0.00 | 0.00 | 39 | 1016.2 |
| 20260503210053 | 21 | 0 | 0.0 | 1.6 | 0.00 | 0.00 | 0.00 | 41 | 1016.2 |
| 20260503205533 | 21 | 0 | 0.0 | 9.7 | 0.00 | 0.00 | 0.00 | 40 | 1016.3 |
| 20260503205033 | 21 | 0 | 0.0 | 9.7 | 0.00 | 0.00 | 0.00 | 41 | 1016.3 |
| 20260503204557 | 21 | 0 | 0.0 | 4.8 | 0.00 | 0.00 | 0.00 | 40 | 1016.2 |
| 20260503204030 | 21 | 0 | 0.0 | 6.4 | 0.00 | 0.00 | 0.00 | 42 | 1016.5 |
| 20260503203529 | 21 | 0 | 0.0 | 6.4 | 0.00 | 0.00 | 0.00 | 39 | 1016.6 |
| 20260503203041 | 21 | 0 | 0.0 | 8.0 | 0.00 | 0.00 | 0.00 | 40 | 1016.6 |
| 20260503202534 | 21 | 0 | 0.0 | 8.0 | 0.00 | 0.00 | 0.00 | 40 | 1016.7 |
| 20260503202031 | 21 | 0 | 0.0 | 1.6 | 0.00 | 0.00 | 0.00 | 43 | 1016.8 |
| 20260503201542 | 20 | 0 | 0.0 | 3.2 | 0.00 | 0.00 | 0.00 | 41 | 1016.9 |
| 20260503201031 | 20 | 0 | 0.0 | 3.2 | 0.00 | 0.00 | 0.00 | 44 | 1016.9 |
| 20260503200531 | 20 | 0 | 0.0 | 12.9 | 0.00 | 0.00 | 0.00 | 44 | 1017.0 |
| 20260503200046 | 20 | 0 | 0.0 | 12.9 | 0.00 | 0.00 | 0.00 | 43 | 1017.1 |
| 20260503195528 | 20 | 298 | 0.0 | 3.2 | 0.00 | 0.00 | 0.00 | 43 | 1017.1 |
| 20260503195032 | 20 | 0 | 0.0 | 0.0 | 0.00 | 0.00 | 0.00 | 46 | 1017.3 |
| 20260503194543 | 20 | 0 | 0.0 | 0.0 | 0.00 | 0.00 | 0.00 | 46 | 1017.4 |
| 20260503194031 | 20 | 0 | 0.0 | 1.6 | 0.00 | 0.00 | 0.00 | 44 | 1017.5 |
| 20260503193531 | 20 | 0 | 0.0 | 1.6 | 0.00 | 0.00 | 0.00 | 44 | 1017.6 |
| 20260503193044 | 20 | 0 | 0.0 | 1.6 | 0.00 | 0.00 | 0.00 | 45 | 1017.6 |
| 20260503192528 | 20 | 0 | 0.0 | 1.6 | 0.00 | 0.00 | 0.00 | 42 | 1017.6 |
| 20260503192202 | 20 | 0 | 0.0 | 11.3 | 0.00 | 0.00 | 0.00 | 43 | 1017.8 |
| 20260503191544 | 21 | 0 | 0.0 | 11.3 | 0.00 | 0.00 | 0.00 | 41 | 1017.9 |
| 20260503191032 | 21 | 0 | 0.0 | 11.3 | 0.00 | 0.00 | 0.00 | 41 | 1018.0 |
| 20260503190531 | 20 | 0 | 0.0 | 6.4 | 0.00 | 0.00 | 0.00 | 44 | 1018.1 |
| 20260503190046 | 20 | 0 | 0.0 | 6.4 | 0.00 | 0.00 | 0.00 | 43 | 1018.1 |
| 20260503185531 | 20 | 0 | 0.0 | 6.4 | 0.00 | 0.00 | 0.00 | 42 | 1018.2 |
| 20260503185032 | 20 | 0 | 0.0 | 3.2 | 0.00 | 0.00 | 0.00 | 43 | 1018.2 |
| 20260503184541 | 20 | 0 | 0.0 | 3.2 | 0.00 | 0.00 | 0.00 | 44 | 1018.3 |
| 20260503184032 | 20 | 90 | 0.0 | 4.8 | 0.00 | 0.00 | 0.00 | 43 | 1018.3 |
| 20260503183532 | 19 | 0 | 0.0 | 4.8 | 0.00 | 0.00 | 0.00 | 45 | 1018.5 |
| 20260503183052 | 19 | 0 | 0.0 | 4.8 | 0.00 | 0.00 | 0.00 | 45 | 1018.4 |
| 20260503182532 | 18 | 0 | 0.0 | 6.4 | 0.00 | 0.00 | 0.00 | 44 | 1018.5 |
| 20260503182036 | 18 | 0 | 0.0 | 6.4 | 0.00 | 0.00 | 0.00 | 44 | 1018.7 |
| 20260503181546 | 18 | 0 | 0.0 | 8.0 | 0.00 | 0.00 | 0.00 | 43 | 1018.6 |
| 20260503181032 | 18 | 0 | 0.0 | 8.0 | 0.00 | 0.00 | 0.00 | 43 | 1018.6 |
| 20260503180532 | 18 | 0 | 0.0 | 8.0 | 0.00 | 0.00 | 0.00 | 43 | 1018.8 |
| 20260503180056 | 18 | 0 | 0.0 | 1.6 | 0.00 | 0.00 | 0.00 | 44 | 1018.7 |
| 20260503175532 | 18 | 0 | 0.0 | 4.8 | 0.00 | 0.00 | 0.00 | 47 | 1018.8 |
| 20260503175032 | 18 | 0 | 0.0 | 4.8 | 0.00 | 0.00 | 0.00 | 43 | 1018.9 |
| 20260503174542 | 18 | 0 | 0.0 | 3.2 | 0.00 | 0.00 | 0.00 | 47 | 1019.0 |
| 20260503174036 | 18 | 0 | 0.0 | 11.3 | 0.00 | 0.00 | 0.00 | 47 | 1018.9 |
| 20260503173533 | 17 | 46 | 0.0 | 11.3 | 0.00 | 0.00 | 0.00 | 46 | 1019.1 |
| 20260503173136 | 17 | 0 | 0.0 | 6.4 | 0.00 | 0.00 | 0.00 | 47 | 1019.1 |
| 20260503172536 | 17 | 0 | 0.0 | 6.4 | 0.00 | 0.00 | 0.00 | 45 | 1019.3 |
| 20260503172031 | 17 | 0 | 0.0 | 6.4 | 0.00 | 0.00 | 0.00 | 46 | 1019.3 |
| 20260503171548 | 17 | 0 | 0.0 | 6.4 | 0.00 | 0.00 | 0.00 | 45 | 1019.4 |
| 20260503171029 | 17 | 0 | 0.0 | 6.4 | 0.00 | 0.00 | 0.00 | 47 | 1019.5 |
| 20260503170532 | 16 | 0 | 0.0 | 11.3 | 0.00 | 0.00 | 0.00 | 45 | 1019.6 |
| 20260503072531 | 6 | 186 | 0.0 | 3.2 | 0.00 | 0.00 | 0.00 | 80 | 1017.5 |
| 20260503072032 | 6 | 186 | 1.6 | 4.8 | 0.00 | 0.00 | 0.00 | 80 | 1017.4 |
| 20260503071543 | 6 | 186 | 1.6 | 4.8 | 0.00 | 0.00 | 0.00 | 81 | 1017.2 |
| 20260503071030 | 6 | 186 | 1.6 | 4.8 | 0.00 | 0.00 | 0.00 | 80 | 1017.1 |
| 20260503070534 | 6 | 187 | 1.6 | 4.8 | 0.00 | 0.00 | 0.00 | 80 | 1017.2 |
| 20260503055032 | 6 | 0 | 0.0 | 3.2 | 0.00 | 0.00 | 0.00 | 77 | 1017.3 |
| 20260503054541 | 7 | 187 | 0.0 | 3.2 | 0.00 | 0.00 | 0.00 | 77 | 1017.3 |
| 20260503054032 | 7 | 0 | 0.0 | 1.6 | 0.00 | 0.00 | 0.00 | 76 | 1017.2 |
| 20260503053535 | 7 | 0 | 0.0 | 1.6 | 0.00 | 0.00 | 0.00 | 76 | 1017.2 |
| 20260503053041 | 7 | 0 | 0.0 | 3.2 | 0.00 | 0.00 | 0.00 | 75 | 1017.3 |
| 20260503052534 | 7 | 0 | 0.0 | 3.2 | 0.00 | 0.00 | 0.00 | 75 | 1017.3 |
| 20260503052031 | 7 | 187 | 0.0 | 3.2 | 0.00 | 0.00 | 0.00 | 75 | 1017.3 |
| 20260503051544 | 7 | 0 | 0.0 | 1.6 | 0.00 | 0.00 | 0.00 | 74 | 1017.3 |
| 20260503051032 | 7 | 187 | 0.0 | 1.6 | 0.00 | 0.00 | 0.00 | 74 | 1017.3 |
| 20260503050533 | 7 | 0 | 0.0 | 1.6 | 0.00 | 0.00 | 0.00 | 74 | 1017.3 |
| 20260503050045 | 7 | 0 | 0.0 | 0.0 | 0.00 | 0.00 | 0.00 | 73 | 1017.3 |
| 20260503045529 | 7 | 0 | 0.0 | 1.6 | 0.00 | 0.00 | 0.00 | 73 | 1017.3 |
| 20260503045032 | 7 | 0 | 0.0 | 1.6 | 0.00 | 0.00 | 0.00 | 72 | 1017.1 |
| 20260503044543 | 7 | 0 | 0.0 | 1.6 | 0.00 | 0.00 | 0.00 | 72 | 1017.2 |
| 20260503044034 | 7 | 187 | 0.0 | 3.2 | 0.00 | 0.00 | 0.00 | 72 | 1017.2 |
| 20260503043533 | 8 | 187 | 0.0 | 3.2 | 0.00 | 0.00 | 0.00 | 70 | 1017.1 |
| 20260503043042 | 8 | 187 | 0.0 | 1.6 | 0.00 | 0.00 | 0.00 | 70 | 1017.1 |
| 20260503042532 | 8 | 0 | 0.0 | 1.6 | 0.00 | 0.00 | 0.00 | 70 | 1017.1 |
| 20260503042033 | 8 | 187 | 0.0 | 1.6 | 0.00 | 0.00 | 0.00 | 69 | 1017.1 |
| 20260503041543 | 8 | 0 | 0.0 | 1.6 | 0.00 | 0.00 | 0.00 | 68 | 1016.8 |
| 20260503041035 | 8 | 0 | 0.0 | 1.6 | 0.00 | 0.00 | 0.00 | 67 | 1016.9 |
| 20260503040534 | 8 | 0 | 0.0 | 1.6 | 0.00 | 0.00 | 0.00 | 66 | 1016.8 |
| 20260503040048 | 9 | 0 | 0.0 | 1.6 | 0.00 | 0.00 | 0.00 | 66 | 1016.8 |
| 20260503035533 | 9 | 0 | 0.0 | 3.2 | 0.00 | 0.00 | 0.00 | 65 | 1016.7 |
| 20260503035036 | 9 | 0 | 0.0 | 3.2 | 0.00 | 0.00 | 0.00 | 64 | 1016.6 |
| 20260503034545 | 9 | 0 | 0.0 | 3.2 | 0.00 | 0.00 | 0.00 | 62 | 1016.5 |
| 20260503034029 | 10 | 187 | 0.0 | 1.6 | 0.00 | 0.00 | 0.00 | 61 | 1016.5 |
| 20260503033531 | 10 | 0 | 0.0 | 1.6 | 0.00 | 0.00 | 0.00 | 60 | 1016.4 |
| 20260503033042 | 10 | 0 | 0.0 | 1.6 | 0.00 | 0.00 | 0.00 | 58 | 1016.3 |
| 20260503032531 | 11 | 0 | 0.0 | 1.6 | 0.00 | 0.00 | 0.00 | 58 | 1016.2 |
| 20260503032030 | 11 | 0 | 0.0 | 3.2 | 0.00 | 0.00 | 0.00 | 57 | 1016.1 |
| 20260503031550 | 11 | 0 | 0.0 | 3.2 | 0.00 | 0.00 | 0.00 | 55 | 1016.2 |
| 20260503031031 | 11 | 0 | 0.0 | 3.2 | 0.00 | 0.00 | 0.00 | 55 | 1016.1 |
| 20260503030531 | 11 | 0 | 0.0 | 3.2 | 0.00 | 0.00 | 0.00 | 53 | 1016.0 |
| 20260503030041 | 12 | 0 | 1.6 | 4.8 | 0.00 | 0.00 | 0.00 | 52 | 1016.0 |
| 20260503025533 | 12 | 0 | 1.6 | 6.4 | 0.00 | 0.00 | 0.00 | 54 | 1015.9 |
| 20260503025031 | 12 | 0 | 3.2 | 6.4 | 0.00 | 0.00 | 0.00 | 51 | 1015.6 |
| 20260503024548 | 12 | 187 | 1.6 | 4.8 | 0.00 | 0.00 | 0.00 | 52 | 1015.6 |
| 20260503024031 | 12 | 153 | 1.6 | 4.8 | 0.00 | 0.00 | 0.00 | 51 | 1015.5 |
| 20260503023531 | 12 | 0 | 1.6 | 3.2 | 0.00 | 0.00 | 0.00 | 51 | 1015.5 |
| 20260503023045 | 12 | 0 | 0.0 | 3.2 | 0.00 | 0.00 | 0.00 | 49 | 1015.4 |
| 20260503022530 | 12 | 0 | 0.0 | 8.0 | 0.00 | 0.00 | 0.00 | 49 | 1015.5 |
| 20260503022031 | 13 | 51 | 0.0 | 11.3 | 0.00 | 0.00 | 0.00 | 48 | 1015.5 |
| 20260503021547 | 13 | 84 | 3.2 | 11.3 | 0.00 | 0.00 | 0.00 | 48 | 1015.4 |
| 20260503021031 | 13 | 264 | 3.2 | 9.7 | 0.00 | 0.00 | 0.00 | 47 | 1015.2 |
| 20260503020531 | 13 | 170 | 1.6 | 6.4 | 0.00 | 0.00 | 0.00 | 47 | 1015.3 |
| 20260503020051 | 13 | 171 | 1.6 | 6.4 | 0.00 | 0.00 | 0.00 | 47 | 1015.3 |
| 20260503015532 | 13 | 171 | 1.6 | 11.3 | 0.00 | 0.00 | 0.00 | 46 | 1015.2 |
| 20260503015032 | 13 | 188 | 3.2 | 11.3 | 0.00 | 0.00 | 0.00 | 47 | 1015.0 |
| 20260503014544 | 13 | 170 | 3.2 | 12.9 | 0.00 | 0.00 | 0.00 | 46 | 1015.0 |
| 20260503014030 | 13 | 134 | 1.6 | 12.9 | 0.00 | 0.00 | 0.00 | 45 | 1014.9 |
| 20260503013532 | 13 | 242 | 1.6 | 11.3 | 0.00 | 0.00 | 0.00 | 45 | 1014.8 |
| 20260503013043 | 13 | 218 | 1.6 | 11.3 | 0.00 | 0.00 | 0.00 | 44 | 1014.8 |
| 20260503012530 | 13 | 52 | 3.2 | 11.3 | 0.00 | 0.00 | 0.00 | 44 | 1014.7 |
| 20260503012033 | 13 | 300 | 3.2 | 11.3 | 0.00 | 0.00 | 0.00 | 44 | 1014.8 |
| 20260503011557 | 13 | 87 | 1.6 | 9.7 | 0.00 | 0.00 | 0.00 | 45 | 1014.5 |
| 20260503011032 | 13 | 56 | 1.6 | 11.3 | 0.00 | 0.00 | 0.00 | 44 | 1014.4 |
| 20260503010530 | 14 | 271 | 3.2 | 11.3 | 0.00 | 0.00 | 0.00 | 43 | 1014.5 |
| 20260503010051 | 14 | 117 | 1.6 | 8.0 | 0.00 | 0.00 | 0.00 | 43 | 1014.4 |
| 20260503005532 | 14 | 202 | 1.6 | 11.3 | 0.00 | 0.00 | 0.00 | 44 | 1014.3 |
| 20260503005034 | 14 | 82 | 3.2 | 17.7 | 0.00 | 0.00 | 0.00 | 42 | 1014.3 |
| 20260503004609 | 14 | 250 | 4.8 | 17.7 | 0.00 | 0.00 | 0.00 | 43 | 1014.2 |
| 20260503004031 | 14 | 63 | 4.8 | 17.7 | 0.00 | 0.00 | 0.00 | 41 | 1014.1 |
| 20260503003530 | 14 | 0 | 3.2 | 16.1 | 0.00 | 0.00 | 0.00 | 42 | 1014.1 |
| 20260503003048 | 15 | 0 | 3.2 | 12.9 | 0.00 | 0.00 | 0.00 | 42 | 1014.0 |
| 20260503002534 | 15 | 184 | 1.6 | 14.5 | 0.00 | 0.00 | 0.00 | 41 | 1013.9 |
| 20260503002033 | 15 | 242 | 3.2 | 14.5 | 0.00 | 0.00 | 0.00 | 41 | 1013.8 |
| 20260503001549 | 15 | 194 | 4.8 | 14.5 | 0.00 | 0.00 | 0.00 | 42 | 1013.7 |
| 20260503001030 | 15 | 233 | 4.8 | 12.9 | 0.00 | 0.00 | 0.00 | 42 | 1013.5 |
| 20260503000533 | 15 | 171 | 0.0 | 12.9 | 0.00 | 0.00 | 0.00 | 43 | 1013.5 |
| 20260503000058 | 15 | 192 | 1.6 | 14.5 | 0.00 | 0.00 | 0.00 | 42 | 1013.3 |
| 20260502235529 | 15 | 269 | 3.2 | 14.5 | 0.00 | 0.00 | 0.00 | 42 | 1013.4 |
| 20260502235029 | 15 | 76 | 3.2 | 12.9 | 0.00 | 0.00 | 0.00 | 41 | 1013.2 |
| 20260502234547 | 15 | 35 | 3.2 | 12.9 | 0.00 | 0.00 | 0.00 | 41 | 1013.1 |
| 20260502234032 | 15 | 60 | 1.6 | 9.7 | 0.00 | 0.00 | 0.00 | 40 | 1012.9 |
| 20260502233534 | 15 | 136 | 1.6 | 16.1 | 0.00 | 0.00 | 0.00 | 40 | 1013.0 |
| 20260502233045 | 15 | 127 | 1.6 | 16.1 | 0.00 | 0.00 | 0.00 | 40 | 1013.0 |
| 20260502232536 | 16 | 0 | 3.2 | 16.1 | 0.00 | 0.00 | 0.00 | 39 | 1012.9 |
| 20260502232030 | 16 | 36 | 4.8 | 12.9 | 0.00 | 0.00 | 0.00 | 38 | 1012.8 |